sensor_id;sensor_type;location;lat;lon;timestamp;pressure;altitude;pressure_sealevel;temperature;humidity
76156;BME280;64906;51.290;7.348;2022-12-18T00:01:44;99294.94;;;19.89;71.67
76156;BME280;64906;51.290;7.348;2022-12-18T00:04:24;99293.03;;;19.89;71.51
76156;BME280;64906;51.290;7.348;2022-12-18T00:06:51;99302.91;;;19.90;71.58
76156;BME280;64906;51.290;7.348;2022-12-18T00:09:18;99297.69;;;19.89;71.17
76156;BME280;64906;51.290;7.348;2022-12-18T00:11:44;99296.34;;;19.86;71.18
76156;BME280;64906;51.290;7.348;2022-12-18T00:14:12;99289.19;;;19.85;71.43
76156;BME280;64906;51.290;7.348;2022-12-18T00:16:39;99297.41;;;19.85;71.40
76156;BME280;64906;51.290;7.348;2022-12-18T00:19:05;99301.53;;;19.88;71.31
76156;BME280;64906;51.290;7.348;2022-12-18T00:21:32;99302.66;;;19.87;71.32
76156;BME280;64906;51.290;7.348;2022-12-18T00:23:59;99301.81;;;19.86;71.67
76156;BME280;64906;51.290;7.348;2022-12-18T00:26:28;99307.31;;;19.86;71.79
76156;BME280;64906;51.290;7.348;2022-12-18T00:28:54;99299.63;;;19.83;71.83
76156;BME280;64906;51.290;7.348;2022-12-18T00:31:24;99284.84;;;19.79;71.55
76156;BME280;64906;51.290;7.348;2022-12-18T00:33:50;99281.81;;;19.81;71.44
76156;BME280;64906;51.290;7.348;2022-12-18T00:36:21;99275.25;;;19.82;71.39
76156;BME280;64906;51.290;7.348;2022-12-18T00:38:48;99281.53;;;19.82;71.21
76156;BME280;64906;51.290;7.348;2022-12-18T00:41:16;99273.88;;;19.84;71.39
76156;BME280;64906;51.290;7.348;2022-12-18T00:44:02;99286.22;;;19.87;71.30
76156;BME280;64906;51.290;7.348;2022-12-18T00:46:28;99275.25;;;19.87;71.26
76156;BME280;64906;51.290;7.348;2022-12-18T00:48:54;99279.34;;;19.84;71.43
76156;BME280;64906;51.290;7.348;2022-12-18T00:51:20;99272.75;;;19.85;71.63
76156;BME280;64906;51.290;7.348;2022-12-18T00:53:46;99272.75;;;19.85;71.79
76156;BME280;64906;51.290;7.348;2022-12-18T00:56:11;99272.22;;;19.88;71.45
76156;BME280;64906;51.290;7.348;2022-12-18T00:58:37;99264.53;;;19.85;71.23
76156;BME280;64906;51.290;7.348;2022-12-18T01:01:06;99267.84;;;19.87;71.34
76156;BME280;64906;51.290;7.348;2022-12-18T01:03:32;99251.38;;;19.87;71.42
76156;BME280;64906;51.290;7.348;2022-12-18T01:05:58;99253.34;;;19.87;71.56
76156;BME280;64906;51.290;7.348;2022-12-18T01:08:24;99245.94;;;19.77;71.28
76156;BME280;64906;51.290;7.348;2022-12-18T01:10:50;99248.09;;;19.80;71.86
76156;BME280;64906;51.290;7.348;2022-12-18T01:13:16;99253.34;;;19.82;71.64
76156;BME280;64906;51.290;7.348;2022-12-18T01:15:51;99247.03;;;19.81;71.58
76156;BME280;64906;51.290;7.348;2022-12-18T01:18:17;99246.75;;;19.78;71.41
76156;BME280;64906;51.290;7.348;2022-12-18T01:20:43;99248.94;;;19.81;71.60
76156;BME280;64906;51.290;7.348;2022-12-18T01:23:09;99253.59;;;19.80;71.63
76156;BME280;64906;51.290;7.348;2022-12-18T01:25:38;99239.09;;;19.80;71.56
76156;BME280;64906;51.290;7.348;2022-12-18T01:28:04;99239.66;;;19.77;71.75
76156;BME280;64906;51.290;7.348;2022-12-18T01:30:29;99239.88;;;19.80;71.47
76156;BME280;64906;51.290;7.348;2022-12-18T01:32:55;99234.97;;;19.77;71.79
76156;BME280;64906;51.290;7.348;2022-12-18T01:35:21;99243.75;;;19.79;71.55
76156;BME280;64906;51.290;7.348;2022-12-18T01:37:47;99236.63;;;19.78;71.69
76156;BME280;64906;51.290;7.348;2022-12-18T01:40:15;99231.16;;;19.78;71.57
76156;BME280;64906;51.290;7.348;2022-12-18T01:42:40;99226.22;;;19.75;71.90
76156;BME280;64906;51.290;7.348;2022-12-18T01:45:22;99218.53;;;19.77;71.48
76156;BME280;64906;51.290;7.348;2022-12-18T01:48:07;99213.91;;;19.73;71.78
76156;BME280;64906;51.290;7.348;2022-12-18T01:50:40;99225.94;;;19.77;71.93
76156;BME280;64906;51.290;7.348;2022-12-18T01:53:13;99230.06;;;19.74;71.67
76156;BME280;64906;51.290;7.348;2022-12-18T01:55:48;99225.94;;;19.77;71.81
76156;BME280;64906;51.290;7.348;2022-12-18T01:58:17;99219.38;;;19.73;71.70
76156;BME280;64906;51.290;7.348;2022-12-18T02:00:43;99222.38;;;19.76;71.58
76156;BME280;64906;51.290;7.348;2022-12-18T02:03:10;99221.56;;;19.76;71.55
76156;BME280;64906;51.290;7.348;2022-12-18T02:08:40;99220.75;;;19.75;72.08
76156;BME280;64906;51.290;7.348;2022-12-18T02:17:11;99215.81;;;19.72;71.83
76156;BME280;64906;51.290;7.348;2022-12-18T02:20:10;99218.25;;;19.74;71.69
76156;BME280;64906;51.290;7.348;2022-12-18T02:28:26;99219.91;;;19.75;71.92
76156;BME280;64906;51.290;7.348;2022-12-18T02:31:16;99215.28;;;19.75;71.79
76156;BME280;64906;51.290;7.348;2022-12-18T02:33:49;99221.00;;;19.74;71.84
76156;BME280;64906;51.290;7.348;2022-12-18T02:36:18;99220.19;;;19.73;71.90
76156;BME280;64906;51.290;7.348;2022-12-18T02:38:46;99208.69;;;19.71;71.69
76156;BME280;64906;51.290;7.348;2022-12-18T02:41:13;99209.25;;;19.68;71.81
76156;BME280;64906;51.290;7.348;2022-12-18T02:43:45;99205.69;;;19.68;71.66
76156;BME280;64906;51.290;7.348;2022-12-18T02:49:05;99212.53;;;19.70;71.64
76156;BME280;64906;51.290;7.348;2022-12-18T02:51:55;99217.19;;;19.70;71.79
76156;BME280;64906;51.290;7.348;2022-12-18T02:54:52;99206.50;;;19.68;71.61
76156;BME280;64906;51.290;7.348;2022-12-18T02:57:46;99207.34;;;19.69;71.88
76156;BME280;64906;51.290;7.348;2022-12-18T03:00:19;99211.44;;;19.66;71.72
76156;BME280;64906;51.290;7.348;2022-12-18T03:05:34;99220.22;;;19.68;71.64
76156;BME280;64906;51.290;7.348;2022-12-18T03:08:10;99206.78;;;19.67;71.66
76156;BME280;64906;51.290;7.348;2022-12-18T03:10:42;99207.06;;;19.65;71.85
76156;BME280;64906;51.290;7.348;2022-12-18T03:13:28;99218.81;;;19.71;71.78
76156;BME280;64906;51.290;7.348;2022-12-18T03:15:58;99210.31;;;19.72;71.60
76156;BME280;64906;51.290;7.348;2022-12-18T03:18:32;99205.94;;;19.71;71.72
76156;BME280;64906;51.290;7.348;2022-12-18T03:21:03;99216.63;;;19.73;71.53
76156;BME280;64906;51.290;7.348;2022-12-18T03:23:40;99207.59;;;19.67;71.72
76156;BME280;64906;51.290;7.348;2022-12-18T03:26:10;99216.63;;;19.73;71.53
76156;BME280;64906;51.290;7.348;2022-12-18T03:28:43;99212.78;;;19.74;71.47
76156;BME280;64906;51.290;7.348;2022-12-18T03:31:12;99209.81;;;19.70;71.67
76156;BME280;64906;51.290;7.348;2022-12-18T03:33:58;99204.59;;;19.69;71.27
76156;BME280;64906;51.290;7.348;2022-12-18T03:36:25;99215.56;;;19.69;71.38
76156;BME280;64906;51.290;7.348;2022-12-18T03:38:51;99214.19;;;19.71;71.34
76156;BME280;64906;51.290;7.348;2022-12-18T03:41:31;99216.91;;;19.71;71.57
76156;BME280;64906;51.290;7.348;2022-12-18T03:44:09;99216.91;;;19.71;71.65
76156;BME280;64906;51.290;7.348;2022-12-18T03:46:43;99213.06;;;19.67;71.68
76156;BME280;64906;51.290;7.348;2022-12-18T03:49:47;99215.56;;;19.69;71.57
76156;BME280;64906;51.290;7.348;2022-12-18T03:53:08;99211.72;;;19.65;71.79
76156;BME280;64906;51.290;7.348;2022-12-18T03:55:15;99219.38;;;19.68;71.83
76156;BME280;64906;51.290;7.348;2022-12-18T03:57:42;99213.06;;;19.67;71.36
76156;BME280;64906;51.290;7.348;2022-12-18T04:00:12;99209.81;;;19.65;71.48
76156;BME280;64906;51.290;7.348;2022-12-18T04:02:43;99212.56;;;19.60;71.66
76156;BME280;64906;51.290;7.348;2022-12-18T04:05:10;99221.84;;;19.59;71.93
76156;BME280;64906;51.290;7.348;2022-12-18T04:07:37;99216.38;;;19.59;71.95
76156;BME280;64906;51.290;7.348;2022-12-18T04:10:06;99202.16;;;19.57;71.78
76156;BME280;64906;51.290;7.348;2022-12-18T04:12:32;99202.16;;;19.57;71.79
76156;BME280;64906;51.290;7.348;2022-12-18T04:14:58;99207.09;;;19.60;71.52
76156;BME280;64906;51.290;7.348;2022-12-18T04:17:24;99201.06;;;19.58;71.68
76156;BME280;64906;51.290;7.348;2022-12-18T04:19:50;99202.16;;;19.57;71.88
76156;BME280;64906;51.290;7.348;2022-12-18T04:22:16;99202.16;;;19.57;71.60
76156;BME280;64906;51.290;7.348;2022-12-18T04:24:42;99195.03;;;19.56;71.61
76156;BME280;64906;51.290;7.348;2022-12-18T04:27:08;99200.50;;;19.56;71.56
76156;BME280;64906;51.290;7.348;2022-12-18T04:29:33;99206.81;;;19.57;71.97
76156;BME280;64906;51.290;7.348;2022-12-18T04:31:59;99199.44;;;19.52;71.72
76156;BME280;64906;51.290;7.348;2022-12-18T04:34:25;99200.22;;;19.53;71.51
76156;BME280;64906;51.290;7.348;2022-12-18T04:36:51;99200.50;;;19.51;71.76
76156;BME280;64906;51.290;7.348;2022-12-18T04:39:17;99198.88;;;19.50;71.75
76156;BME280;64906;51.290;7.348;2022-12-18T04:41:42;99201.63;;;19.50;71.87
76156;BME280;64906;51.290;7.348;2022-12-18T04:44:08;99206.53;;;19.53;71.64
76156;BME280;64906;51.290;7.348;2022-12-18T04:46:34;99204.63;;;19.54;71.48
76156;BME280;64906;51.290;7.348;2022-12-18T04:49:00;99205.44;;;19.54;71.58
76156;BME280;64906;51.290;7.348;2022-12-18T04:51:26;99196.13;;;19.50;71.97
76156;BME280;64906;51.290;7.348;2022-12-18T04:53:52;99196.97;;;19.51;71.80
76156;BME280;64906;51.290;7.348;2022-12-18T04:56:18;99194.75;;;19.53;71.72
76156;BME280;64906;51.290;7.348;2022-12-18T04:58:44;99186.81;;;19.51;71.75
76156;BME280;64906;51.290;7.348;2022-12-18T05:01:12;99197.78;;;19.51;71.71
76156;BME280;64906;51.290;7.348;2022-12-18T05:03:39;99193.41;;;19.50;71.83
76156;BME280;64906;51.290;7.348;2022-12-18T05:06:06;99201.59;;;19.55;71.75
76156;BME280;64906;51.290;7.348;2022-12-18T05:08:33;99203.25;;;19.51;71.63
76156;BME280;64906;51.290;7.348;2022-12-18T05:13:26;99208.72;;;19.46;71.94
76156;BME280;64906;51.290;7.348;2022-12-18T05:15:54;99216.41;;;19.49;71.88
76156;BME280;64906;51.290;7.348;2022-12-18T05:18:20;99213.13;;;19.47;71.81
76156;BME280;64906;51.290;7.348;2022-12-18T05:20:46;99219.16;;;19.49;71.77
76156;BME280;64906;51.290;7.348;2022-12-18T05:23:12;99216.94;;;19.46;71.96
76156;BME280;64906;51.290;7.348;2022-12-18T05:25:38;99216.13;;;19.46;71.89
76156;BME280;64906;51.290;7.348;2022-12-18T05:28:04;99219.16;;;19.49;71.83
76156;BME280;64906;51.290;7.348;2022-12-18T05:30:30;99226.53;;;19.49;71.98
76156;BME280;64906;51.290;7.348;2022-12-18T05:32:56;99226.81;;;19.47;71.63
76156;BME280;64906;51.290;7.348;2022-12-18T05:35:21;99218.06;;;19.45;72.17
76156;BME280;64906;51.290;7.348;2022-12-18T05:37:47;99227.91;;;19.46;71.81
76156;BME280;64906;51.290;7.348;2022-12-18T05:40:13;99233.38;;;19.46;71.74
76156;BME280;64906;51.290;7.348;2022-12-18T05:42:39;99227.63;;;19.43;71.93
76156;BME280;64906;51.290;7.348;2022-12-18T05:45:05;99244.88;;;19.48;71.78
76156;BME280;64906;51.290;7.348;2022-12-18T05:47:31;99236.94;;;19.42;71.82
76156;BME280;64906;51.290;7.348;2022-12-18T05:49:57;99247.34;;;19.45;72.12
76156;BME280;64906;51.290;7.348;2022-12-18T05:52:23;99249.28;;;19.44;71.82
76156;BME280;64906;51.290;7.348;2022-12-18T05:54:49;99253.38;;;19.42;72.09
76156;BME280;64906;51.290;7.348;2022-12-18T05:57:16;99259.41;;;19.44;71.84
76156;BME280;64906;51.290;7.348;2022-12-18T05:59:42;99259.13;;;19.45;71.92
76156;BME280;64906;51.290;7.348;2022-12-18T06:02:08;99254.47;;;19.46;71.63
76156;BME280;64906;51.290;7.348;2022-12-18T06:04:33;99260.75;;;19.46;71.41
76156;BME280;64906;51.290;7.348;2022-12-18T06:06:59;99262.13;;;19.49;71.81
76156;BME280;64906;51.290;7.348;2022-12-18T06:09:31;99264.88;;;19.49;71.63
76156;BME280;64906;51.290;7.348;2022-12-18T06:11:57;99254.75;;;19.49;71.77
76156;BME280;64906;51.290;7.348;2022-12-18T06:14:23;99255.00;;;19.48;71.52
76156;BME280;64906;51.290;7.348;2022-12-18T06:16:50;99256.94;;;19.47;71.69
76156;BME280;64906;51.290;7.348;2022-12-18T06:19:17;99261.84;;;19.45;71.57
76156;BME280;64906;51.290;7.348;2022-12-18T06:21:43;99273.38;;;19.47;71.47
76156;BME280;64906;51.290;7.348;2022-12-18T06:24:09;99272.53;;;19.47;71.63
76156;BME280;64906;51.290;7.348;2022-12-18T06:26:39;99273.91;;;19.44;71.86
76156;BME280;64906;51.290;7.348;2022-12-18T06:29:05;99268.72;;;19.38;71.83
76156;BME280;64906;51.290;7.348;2022-12-18T06:31:31;99277.44;;;19.35;72.32
76156;BME280;64906;51.290;7.348;2022-12-18T06:33:57;99284.03;;;19.34;72.13
76156;BME280;64906;51.290;7.348;2022-12-18T06:36:23;99284.88;;;19.34;72.22
76156;BME280;64906;51.290;7.348;2022-12-18T06:38:49;99290.34;;;19.34;71.97
76156;BME280;64906;51.290;7.348;2022-12-18T06:41:18;99288.69;;;19.33;71.94
76156;BME280;64906;51.290;7.348;2022-12-18T06:43:45;99292.53;;;19.32;71.91
76156;BME280;64906;51.290;7.348;2022-12-18T06:46:12;99285.66;;;19.30;72.01
76156;BME280;64906;51.290;7.348;2022-12-18T06:48:39;99291.69;;;19.32;72.12
76156;BME280;64906;51.290;7.348;2022-12-18T06:51:05;99290.56;;;19.28;72.30
76156;BME280;64906;51.290;7.348;2022-12-18T06:53:32;99294.69;;;19.30;72.01
76156;BME280;64906;51.290;7.348;2022-12-18T06:56:02;99291.91;;;19.25;71.94
76156;BME280;64906;51.290;7.348;2022-12-18T06:58:28;99303.44;;;19.27;72.25
76156;BME280;64906;51.290;7.348;2022-12-18T07:01:00;99308.13;;;19.32;71.97
76156;BME280;64906;51.290;7.348;2022-12-18T07:03:27;99311.13;;;19.30;72.00
76156;BME280;64906;51.290;7.348;2022-12-18T07:05:53;99307.00;;;19.28;71.94
76156;BME280;64906;51.290;7.348;2022-12-18T07:08:18;99318.50;;;19.30;72.24
76156;BME280;64906;51.290;7.348;2022-12-18T07:10:44;99320.13;;;19.26;72.05
76156;BME280;64906;51.290;7.348;2022-12-18T07:13:10;99319.28;;;19.25;72.31
76156;BME280;64906;51.290;7.348;2022-12-18T07:15:36;99319.28;;;19.25;72.37
76156;BME280;64906;51.290;7.348;2022-12-18T07:18:02;99328.91;;;19.28;71.96
76156;BME280;64906;51.290;7.348;2022-12-18T07:20:29;99319.84;;;19.22;71.91
76156;BME280;64906;51.290;7.348;2022-12-18T07:22:54;99333.53;;;19.27;72.06
76156;BME280;64906;51.290;7.348;2022-12-18T07:25:20;99326.19;;;19.33;71.84
76156;BME280;64906;51.290;7.348;2022-12-18T07:27:46;99329.75;;;19.33;72.07
76156;BME280;64906;51.290;7.348;2022-12-18T07:30:12;99325.94;;;19.34;71.80
76156;BME280;64906;51.290;7.348;2022-12-18T07:32:38;99327.28;;;19.32;71.77
76156;BME280;64906;51.290;7.348;2022-12-18T07:35:04;99330.00;;;19.32;71.95
76156;BME280;64906;51.290;7.348;2022-12-18T07:37:30;99330.84;;;19.32;71.94
76156;BME280;64906;51.290;7.348;2022-12-18T07:39:56;99336.88;;;19.34;71.64
76156;BME280;64906;51.290;7.348;2022-12-18T07:42:22;99334.94;;;19.35;71.94
76156;BME280;64906;51.290;7.348;2022-12-18T07:45:00;99328.66;;;19.29;71.78
76156;BME280;64906;51.290;7.348;2022-12-18T07:47:28;99341.50;;;19.29;71.83
76156;BME280;64906;51.290;7.348;2022-12-18T07:49:57;99333.03;;;19.30;71.97
76156;BME280;64906;51.290;7.348;2022-12-18T07:52:23;99341.75;;;19.27;71.86
76156;BME280;64906;51.290;7.348;2022-12-18T07:54:49;99333.81;;;19.26;71.75
76156;BME280;64906;51.290;7.348;2022-12-18T07:57:16;99340.91;;;19.27;72.00
76156;BME280;64906;51.290;7.348;2022-12-18T07:59:42;99347.22;;;19.27;71.74
76156;BME280;64906;51.290;7.348;2022-12-18T08:02:09;99348.34;;;19.26;71.76
76156;BME280;64906;51.290;7.348;2022-12-18T08:04:35;99351.91;;;19.32;71.97
76156;BME280;64906;51.290;7.348;2022-12-18T08:07:00;99354.09;;;19.35;71.43
76156;BME280;64906;51.290;7.348;2022-12-18T08:09:26;99357.13;;;19.38;71.45
76156;BME280;64906;51.290;7.348;2022-12-18T08:11:52;99362.31;;;19.35;71.35
76156;BME280;64906;51.290;7.348;2022-12-18T08:14:18;99364.53;;;19.33;71.56
76156;BME280;64906;51.290;7.348;2022-12-18T08:16:44;99375.19;;;19.34;71.79
76156;BME280;64906;51.290;7.348;2022-12-18T08:19:10;99361.50;;;19.29;71.48
76156;BME280;64906;51.290;7.348;2022-12-18T08:21:36;99366.72;;;19.31;71.65
76156;BME280;64906;51.290;7.348;2022-12-18T08:24:03;99374.09;;;19.30;71.12
76156;BME280;64906;51.290;7.348;2022-12-18T08:26:30;99378.47;;;19.36;70.98
76156;BME280;64906;51.290;7.348;2022-12-18T08:28:57;99374.94;;;19.41;71.08
76156;BME280;64906;51.290;7.348;2022-12-18T08:31:25;99376.84;;;19.45;70.83
76156;BME280;64906;51.290;7.348;2022-12-18T08:33:52;99376.03;;;19.50;71.10
76156;BME280;64906;51.290;7.348;2022-12-18T08:36:18;99376.59;;;19.52;70.98
76156;BME280;64906;51.290;7.348;2022-12-18T08:38:45;99372.22;;;19.51;70.49
76156;BME280;64906;51.290;7.348;2022-12-18T08:41:13;99390.56;;;19.55;70.49
76156;BME280;64906;51.290;7.348;2022-12-18T08:43:40;99391.13;;;19.57;70.53
76156;BME280;64906;51.290;7.348;2022-12-18T08:46:26;99390.28;;;19.57;70.56
76156;BME280;64906;51.290;7.348;2022-12-18T08:48:53;99401.25;;;19.62;70.43
76156;BME280;64906;51.290;7.348;2022-12-18T08:51:20;99413.03;;;19.62;70.37
76156;BME280;64906;51.290;7.348;2022-12-18T08:53:46;99411.94;;;19.63;70.29
76156;BME280;64906;51.290;7.348;2022-12-18T08:56:13;99419.88;;;19.60;70.50
76156;BME280;64906;51.290;7.348;2022-12-18T08:58:39;99417.69;;;19.62;70.33
76156;BME280;64906;51.290;7.348;2022-12-18T09:01:08;99405.91;;;19.56;70.62
76156;BME280;64906;51.290;7.348;2022-12-18T09:03:35;99416.31;;;19.69;70.34
76156;BME280;64906;51.290;7.348;2022-12-18T09:06:01;99418.50;;;19.72;70.63
76156;BME280;64906;51.290;7.348;2022-12-18T09:08:27;99418.22;;;19.74;70.49
76156;BME280;64906;51.290;7.348;2022-12-18T09:10:53;99410.84;;;19.69;70.62
76156;BME280;64906;51.290;7.348;2022-12-18T09:13:19;99418.00;;;19.75;70.25
76156;BME280;64906;51.290;7.348;2022-12-18T09:15:48;99420.19;;;19.78;70.04
76156;BME280;64906;51.290;7.348;2022-12-18T09:18:16;99423.19;;;19.77;68.45
76156;BME280;64906;51.290;7.348;2022-12-18T09:20:43;99421.81;;;19.79;69.47
76156;BME280;64906;51.290;7.348;2022-12-18T09:23:09;99429.19;;;19.79;69.45
76156;BME280;64906;51.290;7.348;2022-12-18T09:25:35;99428.94;;;19.85;69.66
76156;BME280;64906;51.290;7.348;2022-12-18T09:28:06;99428.13;;;19.85;69.48
76156;BME280;64906;51.290;7.348;2022-12-18T09:30:32;99432.78;;;19.84;69.17
76156;BME280;64906;51.290;7.348;2022-12-18T09:33:01;99439.91;;;19.90;69.38
76156;BME280;64906;51.290;7.348;2022-12-18T09:35:27;99444.84;;;19.93;69.02
76156;BME280;64906;51.290;7.348;2022-12-18T09:37:53;99444.59;;;19.95;69.18
76156;BME280;64906;51.290;7.348;2022-12-18T09:40:22;99441.56;;;19.96;68.91
76156;BME280;64906;51.290;7.348;2022-12-18T09:42:54;99444.84;;;19.98;68.48
76156;BME280;64906;51.290;7.348;2022-12-18T09:45:22;99458.81;;;19.97;69.03
76156;BME280;64906;51.290;7.348;2022-12-18T09:47:51;99455.53;;;20.05;68.69
76156;BME280;64906;51.290;7.348;2022-12-18T09:50:31;99458.03;;;20.07;69.12
76156;BME280;64906;51.290;7.348;2022-12-18T09:53:02;99465.69;;;20.10;68.67
76156;BME280;64906;51.290;7.348;2022-12-18T09:55:45;99475.53;;;20.11;68.68
76156;BME280;64906;51.290;7.348;2022-12-18T09:58:24;99493.13;;;20.15;68.44
76156;BME280;64906;51.290;7.348;2022-12-18T10:00:55;99509.84;;;20.13;67.98
76156;BME280;64906;51.290;7.348;2022-12-18T10:03:21;99504.91;;;20.15;67.82
76156;BME280;64906;51.290;7.348;2022-12-18T10:06:02;99489.00;;;20.17;68.00
76156;BME280;64906;51.290;7.348;2022-12-18T10:17:04;99488.41;;;20.10;66.14
76156;BME280;64906;51.290;7.348;2022-12-18T10:19:49;99495.00;;;20.14;66.46
76156;BME280;64906;51.290;7.348;2022-12-18T10:28:21;99501.91;;;20.27;65.14
76156;BME280;64906;51.290;7.348;2022-12-18T10:30:48;99485.44;;;20.27;65.02
76156;BME280;64906;51.290;7.348;2022-12-18T10:33:17;99486.56;;;20.26;65.07
76156;BME280;64906;51.290;7.348;2022-12-18T10:35:44;99487.63;;;20.35;64.97
76156;BME280;64906;51.290;7.348;2022-12-18T10:40:56;99492.59;;;20.38;64.61
76156;BME280;64906;51.290;7.348;2022-12-18T10:43:30;99499.44;;;20.40;64.64
76156;BME280;64906;51.290;7.348;2022-12-18T10:48:39;99518.91;;;20.44;64.82
76156;BME280;64906;51.290;7.348;2022-12-18T10:51:07;99504.38;;;20.43;65.44
76156;BME280;64906;51.290;7.348;2022-12-18T10:53:35;99508.22;;;20.42;65.16
76156;BME280;64906;51.290;7.348;2022-12-18T10:56:03;99510.69;;;20.39;65.63
76156;BME280;64906;51.290;7.348;2022-12-18T10:58:34;99500.78;;;20.43;65.65
76156;BME280;64906;51.290;7.348;2022-12-18T11:03:35;99502.19;;;20.40;66.29
76156;BME280;64906;51.290;7.348;2022-12-18T11:06:06;99499.72;;;20.49;66.72
76156;BME280;64906;51.290;7.348;2022-12-18T11:08:32;99497.53;;;20.51;66.40
76156;BME280;64906;51.290;7.348;2022-12-18T11:10:58;99496.41;;;20.52;66.58
76156;BME280;64906;51.290;7.348;2022-12-18T11:13:27;99498.31;;;20.51;66.74
76156;BME280;64906;51.290;7.348;2022-12-18T11:15:53;99495.03;;;20.49;67.56
76156;BME280;64906;51.290;7.348;2022-12-18T11:18:33;99490.66;;;20.53;67.34
76156;BME280;64906;51.290;7.348;2022-12-18T11:21:11;99491.47;;;20.64;67.69
76156;BME280;64906;51.290;7.348;2022-12-18T11:23:46;99480.22;;;20.60;67.35
76156;BME280;64906;51.290;7.348;2022-12-18T11:26:13;99482.41;;;20.58;67.19
76156;BME280;64906;51.290;7.348;2022-12-18T11:28:42;99491.19;;;20.60;67.21
76156;BME280;64906;51.290;7.348;2022-12-18T11:36:41;99482.13;;;20.65;66.83
76156;BME280;64906;51.290;7.348;2022-12-18T11:42:20;99477.75;;;20.64;67.10
76156;BME280;64906;51.290;7.348;2022-12-18T11:48:26;99463.47;;;20.72;66.95
76156;BME280;64906;51.290;7.348;2022-12-18T11:50:56;99456.34;;;20.66;66.88
76156;BME280;64906;51.290;7.348;2022-12-18T11:53:24;99460.72;;;20.72;66.72
76156;BME280;64906;51.290;7.348;2022-12-18T11:56:02;99446.19;;;20.71;66.77
76156;BME280;64906;51.290;7.348;2022-12-18T11:58:46;99462.63;;;20.71;66.37
76156;BME280;64906;51.290;7.348;2022-12-18T12:01:25;99457.16;;;20.71;66.52
76156;BME280;64906;51.290;7.348;2022-12-18T12:20:22;99434.06;;;20.87;64.20
76156;BME280;64906;51.290;7.348;2022-12-18T12:23:20;99437.06;;;20.91;64.75
76156;BME280;64906;51.290;7.348;2022-12-18T12:25:59;99421.72;;;20.90;64.48
76156;BME280;64906;51.290;7.348;2022-12-18T12:28:52;99431.00;;;20.94;64.93
76156;BME280;64906;51.290;7.348;2022-12-18T12:31:40;99427.97;;;20.95;64.60
76156;BME280;64906;51.290;7.348;2022-12-18T12:34:17;99426.06;;;20.96;64.90
76156;BME280;64906;51.290;7.348;2022-12-18T12:37:07;99415.94;;;20.91;65.24
76156;BME280;64906;51.290;7.348;2022-12-18T12:39:38;99410.72;;;21.00;65.00
76156;BME280;64906;51.290;7.348;2022-12-18T12:42:19;99407.69;;;21.01;64.51
76156;BME280;64906;51.290;7.348;2022-12-18T12:45:05;99410.13;;;21.08;64.79
76156;BME280;64906;51.290;7.348;2022-12-18T12:47:37;99394.78;;;21.02;64.48
76156;BME280;64906;51.290;7.348;2022-12-18T12:50:06;99394.19;;;21.05;64.53
76156;BME280;64906;51.290;7.348;2022-12-18T12:52:40;99389.28;;;21.02;64.61
76156;BME280;64906;51.290;7.348;2022-12-18T12:55:31;99395.88;;;21.06;64.72
76156;BME280;64906;51.290;7.348;2022-12-18T13:00:46;99387.63;;;21.06;65.09
76156;BME280;64906;51.290;7.348;2022-12-18T13:05:59;99380.47;;;21.10;64.50
76156;BME280;64906;51.290;7.348;2022-12-18T13:08:31;99367.00;;;21.08;64.58
76156;BME280;64906;51.290;7.348;2022-12-18T13:10:59;99371.13;;;21.11;64.79
76156;BME280;64906;51.290;7.348;2022-12-18T13:13:51;99365.91;;;21.14;64.55
76156;BME280;64906;51.290;7.348;2022-12-18T13:16:22;99368.66;;;21.14;64.50
76156;BME280;64906;51.290;7.348;2022-12-18T13:18:51;99362.03;;;21.15;64.44
76156;BME280;64906;51.290;7.348;2022-12-18T13:21:24;99361.75;;;21.17;64.55
76156;BME280;64906;51.290;7.348;2022-12-18T13:23:53;99357.66;;;21.14;64.90
76156;BME280;64906;51.290;7.348;2022-12-18T13:33:44;99342.28;;;21.13;64.50
76156;BME280;64906;51.290;7.348;2022-12-18T13:38:39;99357.88;;;21.23;64.50
76156;BME280;64906;51.290;7.348;2022-12-18T13:43:43;99352.09;;;21.24;64.47
76156;BME280;64906;51.290;7.348;2022-12-18T13:49:25;99335.09;;;21.22;64.93
76156;BME280;64906;51.290;7.348;2022-12-18T13:51:54;99344.13;;;21.23;64.65
76156;BME280;64906;51.290;7.348;2022-12-18T13:54:39;99336.44;;;21.25;64.57
76156;BME280;64906;51.290;7.348;2022-12-18T13:57:28;99328.47;;;21.28;64.65
76156;BME280;64906;51.290;7.348;2022-12-18T13:59:55;99323.22;;;21.32;64.78
76156;BME280;64906;51.290;7.348;2022-12-18T14:02:23;99324.28;;;21.36;64.31
76156;BME280;64906;51.290;7.348;2022-12-18T14:04:51;99314.97;;;21.37;64.07
76156;BME280;64906;51.290;7.348;2022-12-18T14:07:22;99307.03;;;21.30;64.38
76156;BME280;64906;51.290;7.348;2022-12-18T14:09:59;99309.97;;;21.44;64.02
76156;BME280;64906;51.290;7.348;2022-12-18T14:12:34;99299.66;;;21.26;64.46
76156;BME280;64906;51.290;7.348;2022-12-18T14:18:07;99296.66;;;21.22;65.12
76156;BME280;64906;51.290;7.348;2022-12-18T14:20:43;99305.66;;;21.28;65.00
76156;BME280;64906;51.290;7.348;2022-12-18T14:26:02;99302.16;;;21.22;64.85
76156;BME280;64906;51.290;7.348;2022-12-18T14:28:29;99305.16;;;21.26;64.86
76156;BME280;64906;51.290;7.348;2022-12-18T14:30:55;99299.91;;;21.24;64.73
76156;BME280;64906;51.290;7.348;2022-12-18T14:33:24;99314.47;;;21.25;65.08
76156;BME280;64906;51.290;7.348;2022-12-18T14:36:00;99292.25;;;21.21;65.26
76156;BME280;64906;51.290;7.348;2022-12-18T14:39:12;99304.31;;;21.25;65.03
76156;BME280;64906;51.290;7.348;2022-12-18T14:41:18;99297.47;;;21.23;65.04
76156;BME280;64906;51.290;7.348;2022-12-18T14:43:47;99290.06;;;21.23;64.90
76156;BME280;64906;51.290;7.348;2022-12-18T14:48:54;99280.97;;;21.23;64.99
76156;BME280;64906;51.290;7.348;2022-12-18T14:51:23;99290.28;;;21.32;65.07
76156;BME280;64906;51.290;7.348;2022-12-18T14:54:01;99285.84;;;21.36;64.90
76156;BME280;64906;51.290;7.348;2022-12-18T14:56:32;99275.69;;;21.37;64.77
76156;BME280;64906;51.290;7.348;2022-12-18T14:59:04;99274.81;;;21.41;65.07